Time;durP1;ratioP1;P1;durP2;ratioP2;P2;SDS_P1;SDS_P2;PMS_P1;PMS_P2;Temp;Humidity;BMP_temperature;BMP_pressure;BME280_temperature;BME280_humidity;BME280_pressure;Samples;Min_cycle;Max_cycle;Signal;HPM_P1;HPM_P2
2022/05/17 00:02:05;;;;;;;29.00;9.10;;;15.70;99.90;;;;;;4987555;28;20035;-71
2022/05/17 00:04:32;;;;;;;30.35;9.10;;;15.60;99.90;;;;;;4985754;28;20062;-71
2022/05/17 00:06:58;;;;;;;23.10;8.52;;;15.60;99.90;;;;;;4985346;28;20114;-70
2022/05/17 00:09:24;;;;;;;25.70;10.10;;;15.60;99.90;;;;;;4986983;28;20105;-70
2022/05/17 00:11:49;;;;;;;25.08;8.73;;;15.60;99.90;;;;;;4987261;28;20480;-69
2022/05/17 00:14:16;;;;;;;21.17;8.32;;;15.50;99.90;;;;;;4986357;28;20082;-69
2022/05/17 00:16:43;;;;;;;26.27;8.93;;;15.50;99.90;;;;;;4982199;28;20034;-70
2022/05/17 00:19:10;;;;;;;32.38;8.52;;;15.40;99.90;;;;;;4988028;28;20046;-70
2022/05/17 00:21:37;;;;;;;28.75;8.65;;;15.40;99.90;;;;;;4990077;28;20085;-70
2022/05/17 00:24:04;;;;;;;21.25;8.30;;;15.40;99.90;;;;;;4987213;28;20050;-70
2022/05/17 00:26:29;;;;;;;23.10;8.75;;;15.30;99.90;;;;;;4992794;28;20047;-69
2022/05/17 00:28:55;;;;;;;24.85;8.25;;;15.30;99.90;;;;;;4989052;28;20038;-69
2022/05/17 00:31:21;;;;;;;22.30;7.93;;;15.30;99.90;;;;;;4984063;28;20089;-70
2022/05/17 00:33:47;;;;;;;21.80;7.78;;;15.30;99.90;;;;;;4988808;28;20042;-69
2022/05/17 00:36:14;;;;;;;28.50;8.38;;;15.20;99.90;;;;;;4993502;28;20498;-71
2022/05/17 00:38:40;;;;;;;36.35;8.95;;;15.20;99.90;;;;;;4987279;28;20476;-70
2022/05/17 00:41:05;;;;;;;22.70;8.07;;;15.20;99.90;;;;;;4987184;28;20090;-69
2022/05/17 00:44:42;;;;;;;23.90;8.00;;;15.20;99.90;;;;;;4987556;28;20124;-69
2022/05/17 00:46:22;;;;;;;23.65;7.78;;;15.20;99.90;;;;;;4992612;28;20452;-71
2022/05/17 00:48:50;;;;;;;26.45;8.30;;;15.10;99.90;;;;;;4989804;28;20385;-70
2022/05/17 00:51:20;;;;;;;30.73;8.65;;;15.10;99.90;;;;;;4989863;28;20124;-70
2022/05/17 00:53:46;;;;;;;28.52;8.43;;;15.10;99.90;;;;;;4981938;28;20051;-69
2022/05/17 00:56:19;;;;;;;22.80;8.05;;;15.00;99.90;;;;;;4985078;28;20034;-69
2022/05/17 00:58:50;;;;;;;25.52;7.93;;;15.00;99.90;;;;;;4984907;28;20053;-70
2022/05/17 01:01:19;;;;;;;26.63;8.80;;;15.30;99.90;;;;;;4992944;28;20055;-70
2022/05/17 01:03:58;;;;;;;23.10;8.43;;;15.00;99.90;;;;;;4983366;28;20051;-70
2022/05/17 01:06:35;;;;;;;26.33;8.18;;;15.00;99.90;;;;;;4979129;28;20058;-69
2022/05/17 01:09:02;;;;;;;19.40;7.88;;;15.00;99.90;;;;;;4987267;28;20066;-70
2022/05/17 01:11:27;;;;;;;31.83;8.50;;;14.90;99.90;;;;;;4989610;28;20049;-69
2022/05/17 01:16:37;;;;;;;32.40;9.38;;;15.00;99.90;;;;;;4988876;28;20056;-69
2022/05/17 01:19:07;;;;;;;25.15;8.55;;;14.90;99.90;;;;;;4990214;28;20035;-70
2022/05/17 01:21:32;;;;;;;32.22;9.85;;;14.90;99.90;;;;;;4988275;28;20042;-70
2022/05/17 01:23:58;;;;;;;26.55;9.02;;;14.80;99.90;;;;;;4977088;28;20054;-70
2022/05/17 01:26:26;;;;;;;24.02;9.82;;;14.80;99.90;;;;;;4977188;28;20043;-70
2022/05/17 01:28:52;;;;;;;26.05;10.20;;;14.90;99.90;;;;;;4985193;28;20043;-70
2022/05/17 01:31:19;;;;;;;28.67;10.00;;;14.90;99.90;;;;;;4985159;28;20042;-70
2022/05/17 01:33:44;;;;;;;29.90;9.55;;;14.80;99.90;;;;;;4991303;28;20042;-70
2022/05/17 01:36:12;;;;;;;23.77;9.20;;;14.80;99.90;;;;;;4981025;28;20089;-70
2022/05/17 01:38:38;;;;;;;23.15;9.40;;;14.80;99.90;;;;;;4985990;28;20042;-70
2022/05/17 01:41:04;;;;;;;25.33;9.63;;;14.80;99.90;;;;;;4979786;28;20039;-70
2022/05/17 01:43:30;;;;;;;21.92;8.45;;;14.80;99.90;;;;;;4994526;28;20042;-69
2022/05/17 01:45:55;;;;;;;24.45;9.95;;;14.80;99.90;;;;;;4986332;28;21420;-70
2022/05/17 01:48:21;;;;;;;27.40;10.40;;;14.70;99.90;;;;;;4985721;28;20078;-70
2022/05/17 01:50:47;;;;;;;31.13;9.95;;;14.70;99.90;;;;;;4988483;28;20042;-70
2022/05/17 01:53:13;;;;;;;25.75;9.45;;;14.70;99.90;;;;;;4981681;28;20043;-70
2022/05/17 01:55:39;;;;;;;26.35;9.48;;;14.70;99.90;;;;;;4984909;28;20390;-70
2022/05/17 01:58:05;;;;;;;30.13;9.77;;;14.60;99.90;;;;;;4975008;28;20047;-70
2022/05/17 02:00:31;;;;;;;29.60;9.00;;;14.60;99.90;;;;;;4981149;28;20101;-69
2022/05/17 02:02:57;;;;;;;22.90;8.52;;;14.60;99.90;;;;;;4997256;28;20421;-70
2022/05/17 02:05:25;;;;;;;23.35;8.82;;;14.60;99.90;;;;;;4996386;28;20054;-70
2022/05/17 02:07:51;;;;;;;26.70;8.95;;;14.60;99.90;;;;;;4992271;28;20046;-69
2022/05/17 02:10:25;;;;;;;21.25;8.85;;;14.60;99.90;;;;;;4990925;28;20073;-70
2022/05/17 02:12:54;;;;;;;24.30;9.20;;;14.50;99.90;;;;;;4989100;28;20050;-71
2022/05/17 02:15:20;;;;;;;21.52;8.70;;;14.50;99.90;;;;;;4985006;28;20049;-70
2022/05/17 02:17:45;;;;;;;23.50;8.25;;;14.50;99.90;;;;;;4992669;28;20043;-70
2022/05/17 02:20:11;;;;;;;26.13;8.23;;;14.50;99.90;;;;;;4988337;28;20493;-70
2022/05/17 02:22:37;;;;;;;28.30;10.00;;;14.50;99.90;;;;;;4983100;28;20117;-70
2022/05/17 02:25:03;;;;;;;24.75;9.13;;;14.50;99.90;;;;;;4997643;28;20042;-68
2022/05/17 02:27:29;;;;;;;27.95;8.48;;;14.40;99.90;;;;;;4992518;28;20042;-70
2022/05/17 02:29:55;;;;;;;22.35;8.10;;;14.40;99.90;;;;;;4991582;28;20046;-70
2022/05/17 02:32:21;;;;;;;30.08;8.85;;;14.40;99.90;;;;;;4985766;28;20074;-71
2022/05/17 02:34:47;;;;;;;28.38;9.38;;;14.40;99.90;;;;;;4994602;28;20069;-69
2022/05/17 02:37:15;;;;;;;27.73;9.30;;;14.40;99.90;;;;;;4990823;28;20113;-70
2022/05/17 02:39:41;;;;;;;;;;;14.40;99.90;;;;;;4984623;28;20050;-70
2022/05/17 02:42:09;;;;;;;27.40;9.50;;;14.60;99.90;;;;;;4984593;28;20004;-69
2022/05/17 02:44:34;;;;;;;20.25;8.07;;;14.40;99.90;;;;;;4990483;28;20100;-71
2022/05/17 02:47:00;;;;;;;18.80;7.68;;;14.30;99.90;;;;;;4984210;28;20109;-70
2022/05/17 02:49:26;;;;;;;23.10;8.40;;;14.40;99.90;;;;;;4996537;28;20489;-70
2022/05/17 02:51:54;;;;;;;23.23;8.40;;;14.30;99.90;;;;;;4989810;28;20068;-70
2022/05/17 02:54:21;;;;;;;24.50;8.20;;;14.30;99.90;;;;;;4990673;28;20054;-70
2022/05/17 02:56:46;;;;;;;22.83;8.48;;;14.30;99.90;;;;;;4988358;28;20100;-69
2022/05/17 02:59:17;;;;;;;24.80;8.88;;;14.30;99.90;;;;;;4990945;28;20046;-70
2022/05/17 03:01:43;;;;;;;23.15;8.88;;;14.30;99.90;;;;;;4989818;28;20050;-70
2022/05/17 03:04:09;;;;;;;23.40;8.05;;;14.30;99.90;;;;;;4983544;28;20050;-69
2022/05/17 03:06:34;;;;;;;26.60;9.23;;;14.20;99.90;;;;;;4989332;28;20509;-70
2022/05/17 03:09:00;;;;;;;20.05;8.57;;;14.30;99.90;;;;;;4993830;28;20082;-70
2022/05/17 03:11:26;;;;;;;24.40;8.07;;;14.20;99.90;;;;;;4991672;28;20473;-70
2022/05/17 03:13:51;;;;;;;25.85;9.00;;;14.10;99.90;;;;;;4986108;28;20695;-71
2022/05/17 03:16:17;;;;;;;25.92;8.88;;;14.20;99.90;;;;;;4972926;28;20089;-70
2022/05/17 03:18:44;;;;;;;24.77;8.65;;;14.10;99.90;;;;;;4990170;28;20144;-70
2022/05/17 03:21:09;;;;;;;28.92;9.65;;;14.10;99.90;;;;;;4989519;28;20043;-70
2022/05/17 03:23:35;;;;;;;23.45;9.20;;;14.20;99.90;;;;;;4992378;28;20046;-70
2022/05/17 03:26:01;;;;;;;18.75;8.45;;;14.10;99.90;;;;;;4969500;28;20041;-69
2022/05/17 03:28:27;;;;;;;20.25;8.30;;;14.10;99.90;;;;;;4980611;28;20133;-70
2022/05/17 03:30:53;;;;;;;17.33;7.88;;;14.10;99.90;;;;;;4985077;28;20125;-70
2022/05/17 03:33:18;;;;;;;24.98;8.65;;;14.10;99.90;;;;;;4987780;28;20042;-69
2022/05/17 03:35:44;;;;;;;21.23;8.45;;;14.00;99.90;;;;;;4988604;28;20515;-70
2022/05/17 03:38:10;;;;;;;24.55;8.57;;;14.00;99.90;;;;;;4990373;28;20125;-70
2022/05/17 03:40:35;;;;;;;22.25;8.35;;;14.00;99.90;;;;;;4989396;28;20030;-70
2022/05/17 03:43:01;;;;;;;24.33;8.65;;;14.00;99.90;;;;;;4986427;28;20053;-70
2022/05/17 03:45:26;;;;;;;20.60;8.93;;;14.00;99.90;;;;;;4985385;28;20047;-69
2022/05/17 03:47:52;;;;;;;23.80;8.25;;;14.00;99.90;;;;;;4987534;28;20050;-69
2022/05/17 03:50:18;;;;;;;20.25;8.23;;;14.00;99.90;;;;;;4991160;28;20043;-70
2022/05/17 03:52:44;;;;;;;21.40;7.90;;;14.00;99.90;;;;;;4987907;28;20104;-69
2022/05/17 03:55:11;;;;;;;22.25;8.75;;;14.80;99.90;;;;;;4980361;28;20405;-69
2022/05/17 03:57:37;;;;;;;22.65;8.00;;;13.90;99.90;;;;;;4989202;28;20146;-69
2022/05/17 04:00:06;;;;;;;27.15;8.43;;;13.90;99.90;;;;;;4985487;28;20137;-69
2022/05/17 04:02:34;;;;;;;28.02;8.70;;;13.90;99.90;;;;;;4982244;28;20038;-69
2022/05/17 04:05:00;;;;;;;19.50;7.80;;;13.90;99.90;;;;;;4992214;28;20819;-70
2022/05/17 04:07:25;;;;;;;16.40;7.97;;;13.90;99.90;;;;;;4993737;28;20046;-70
2022/05/17 04:09:53;;;;;;;18.85;8.13;;;13.90;99.90;;;;;;4986881;28;20039;-70
2022/05/17 04:12:19;;;;;;;22.58;7.82;;;13.90;99.90;;;;;;4986811;28;20085;-70
2022/05/17 04:14:45;;;;;;;20.23;7.22;;;14.00;99.90;;;;;;4989036;28;20392;-70
2022/05/17 04:17:11;;;;;;;19.90;7.13;;;14.00;99.90;;;;;;4988146;28;20050;-69
2022/05/17 04:19:37;;;;;;;23.98;8.07;;;14.00;99.90;;;;;;4987114;28;20081;-70
2022/05/17 04:22:08;;;;;;;19.60;7.28;;;14.10;99.90;;;;;;4988199;28;20544;-70
2022/05/17 04:24:34;;;;;;;22.17;8.13;;;14.10;99.90;;;;;;4988907;28;20153;-70
2022/05/17 04:27:00;;;;;;;22.65;8.05;;;14.10;99.90;;;;;;4993211;28;20125;-69
2022/05/17 04:29:25;;;;;;;27.27;7.20;;;14.10;99.90;;;;;;4981904;28;20126;-70
2022/05/17 04:31:52;;;;;;;16.55;7.10;;;14.20;99.90;;;;;;4986121;28;20038;-70
2022/05/17 04:34:18;;;;;;;16.70;7.10;;;14.60;99.90;;;;;;4984505;28;20050;-69
2022/05/17 04:36:43;;;;;;;15.38;6.82;;;14.30;99.90;;;;;;4985744;28;20058;-69
2022/05/17 04:39:09;;;;;;;27.33;8.60;;;14.40;99.90;;;;;;4989652;28;20074;-70
2022/05/17 04:41:35;;;;;;;19.60;7.47;;;14.40;99.90;;;;;;4985146;28;20058;-70
2022/05/17 04:44:00;;;;;;;19.00;6.95;;;14.50;99.90;;;;;;4984683;28;20485;-71
2022/05/17 04:46:26;;;;;;;27.90;8.07;;;14.70;99.90;;;;;;4990911;28;20041;-71
2022/05/17 04:48:52;;;;;;;19.80;7.20;;;14.70;99.90;;;;;;4986773;28;20046;-69
2022/05/17 04:51:18;;;;;;;16.75;6.60;;;14.90;99.90;;;;;;4986223;28;20497;-70
2022/05/17 04:53:43;;;;;;;22.27;7.00;;;14.90;99.90;;;;;;4989206;28;20381;-70
2022/05/17 04:56:10;;;;;;;17.02;6.68;;;15.00;99.90;;;;;;4982000;28;20046;-70
2022/05/17 04:58:36;;;;;;;22.95;6.70;;;15.10;99.90;;;;;;4985503;28;20043;-70
2022/05/17 05:01:03;;;;;;;19.73;6.15;;;15.30;99.90;;;;;;4983014;28;20080;-70
2022/05/17 05:03:29;;;;;;;18.65;6.18;;;15.20;99.90;;;;;;4987237;28;20083;-70
2022/05/17 05:05:54;;;;;;;24.58;7.55;;;15.30;99.90;;;;;;4981376;28;20046;-69
2022/05/17 05:08:20;;;;;;;21.88;7.28;;;15.30;99.90;;;;;;4985132;28;20038;-69
2022/05/17 05:10:46;;;;;;;21.52;6.38;;;15.30;99.90;;;;;;4981101;28;20043;-70
2022/05/17 05:13:18;;;;;;;16.98;5.57;;;15.40;99.90;;;;;;4993147;28;20045;-70
2022/05/17 05:15:44;;;;;;;21.52;6.32;;;15.50;99.90;;;;;;4986240;28;20053;-69
2022/05/17 05:18:10;;;;;;;17.45;6.03;;;15.50;99.90;;;;;;4983606;28;20405;-71
2022/05/17 05:20:37;;;;;;;19.63;5.85;;;15.50;99.90;;;;;;4986188;28;20053;-67
2022/05/17 05:23:04;;;;;;;17.42;6.03;;;15.60;99.90;;;;;;4978250;28;20039;-70
2022/05/17 05:25:29;;;;;;;16.55;5.88;;;15.60;99.90;;;;;;4979707;28;20061;-69
2022/05/17 05:27:55;;;;;;;22.33;7.07;;;15.60;99.90;;;;;;4988715;28;20065;-70
2022/05/17 05:30:21;;;;;;;21.13;5.70;;;15.60;99.90;;;;;;4991655;28;20053;-69
2022/05/17 05:32:47;;;;;;;18.27;5.85;;;15.60;99.90;;;;;;4992680;28;20570;-69
2022/05/17 05:35:18;;;;;;;16.95;6.40;;;15.70;99.90;;;;;;4981006;28;20433;-70
2022/05/17 05:37:43;;;;;;;14.27;6.47;;;15.60;99.90;;;;;;4988733;28;20047;-69
2022/05/17 05:40:11;;;;;;;21.85;6.78;;;15.70;99.90;;;;;;4991314;28;20042;-70
2022/05/17 05:42:39;;;;;;;17.73;5.90;;;15.70;99.90;;;;;;4985392;28;20396;-70
2022/05/17 05:45:05;;;;;;;23.88;6.80;;;15.70;99.90;;;;;;4992771;28;20050;-70
2022/05/17 05:47:31;;;;;;;20.98;6.40;;;15.70;99.90;;;;;;4983666;28;20042;-69
2022/05/17 05:49:57;;;;;;;16.17;6.22;;;15.80;99.90;;;;;;4985073;28;20042;-70
2022/05/17 05:52:23;;;;;;;24.35;6.80;;;16.00;99.90;;;;;;4982830;28;20118;-71
2022/05/17 05:54:48;;;;;;;24.75;7.32;;;16.10;99.90;;;;;;4997044;28;20454;-70
2022/05/17 05:57:14;;;;;;;21.45;7.22;;;16.20;99.90;;;;;;4994416;28;20053;-69
2022/05/17 05:59:41;;;;;;;17.08;6.57;;;16.30;99.90;;;;;;5000024;28;20053;-70
2022/05/17 06:02:07;;;;;;;26.67;6.78;;;16.40;99.90;;;;;;4992634;28;20089;-71
2022/05/17 06:04:34;;;;;;;18.25;5.75;;;16.40;99.90;;;;;;4974178;28;20118;-70
2022/05/17 06:07:00;;;;;;;20.60;6.68;;;16.40;99.90;;;;;;4987575;28;20399;-69
2022/05/17 06:09:26;;;;;;;14.60;5.38;;;16.60;99.90;;;;;;5015115;28;20042;-69
2022/05/17 06:11:52;;;;;;;21.05;5.80;;;16.60;99.90;;;;;;4991812;28;20451;-69
2022/05/17 06:14:22;;;;;;;17.95;6.40;;;16.60;99.90;;;;;;4995427;28;20129;-69
2022/05/17 06:16:52;;;;;;;18.15;6.07;;;16.70;99.90;;;;;;4986510;28;20121;-69
2022/05/17 06:19:18;;;;;;;20.52;6.03;;;16.70;99.90;;;;;;4989679;28;20053;-69
2022/05/17 06:21:44;;;;;;;16.55;5.75;;;16.80;99.90;;;;;;5008999;28;20053;-69
2022/05/17 06:24:09;;;;;;;26.15;6.00;;;16.90;99.90;;;;;;4977029;28;20038;-69
2022/05/17 06:26:36;;;;;;;23.20;6.28;;;16.90;99.90;;;;;;4994773;28;20081;-71
2022/05/17 06:29:03;;;;;;;15.07;5.28;;;17.10;99.90;;;;;;5010473;28;20136;-69
2022/05/17 06:31:28;;;;;;;15.02;5.53;;;17.20;99.90;;;;;;4975991;28;20043;-69
2022/05/17 06:33:54;;;;;;;26.13;5.13;;;17.40;99.90;;;;;;4979142;28;20051;-70
2022/05/17 06:36:20;;;;;;;18.48;4.53;;;17.50;99.90;;;;;;5015005;28;20050;-70
2022/05/17 06:38:46;;;;;;;18.95;5.22;;;17.60;99.90;;;;;;4977216;28;20409;-69
2022/05/17 06:41:11;;;;;;;20.92;4.65;;;17.80;99.90;;;;;;4975753;28;20051;-68
2022/05/17 06:43:37;;;;;;;18.23;5.43;;;17.80;99.90;;;;;;4984887;28;20043;-70
2022/05/17 06:46:03;;;;;;;19.85;5.68;;;17.90;99.90;;;;;;4975791;28;20074;-69
2022/05/17 06:48:30;;;;;;;26.13;5.97;;;18.00;99.90;;;;;;4974621;28;20043;-69
2022/05/17 06:51:06;;;;;;;17.02;4.93;;;18.10;99.90;;;;;;4993886;28;20093;-69
2022/05/17 06:53:32;;;;;;;14.27;4.68;;;18.00;99.90;;;;;;4995296;28;20050;-69
2022/05/17 06:55:58;;;;;;;16.13;5.47;;;18.10;99.90;;;;;;4993285;28;20562;-68
2022/05/17 06:58:24;;;;;;;24.40;5.85;;;18.00;99.90;;;;;;4989632;28;20050;-70
2022/05/17 07:00:49;;;;;;;15.85;4.85;;;18.10;99.90;;;;;;4975592;28;20109;-69
2022/05/17 07:03:15;;;;;;;21.95;4.78;;;18.20;99.90;;;;;;4994142;28;20052;-70
2022/05/17 07:05:41;;;;;;;16.10;4.85;;;18.20;99.90;;;;;;5013805;28;20042;-69
2022/05/17 07:08:07;;;;;;;19.55;4.75;;;18.40;99.90;;;;;;4983664;28;20081;-69
2022/05/17 07:13:17;;;;;;;12.45;4.38;;;18.50;99.90;;;;;;4993829;28;20056;-69
2022/05/17 07:15:48;;;;;;;20.85;4.95;;;18.50;99.90;;;;;;4994642;28;20042;-69
2022/05/17 07:18:17;;;;;;;19.83;4.50;;;18.70;99.90;;;;;;4994671;28;20384;-69
2022/05/17 07:20:43;;;;;;;10.57;4.60;;;18.60;99.90;;;;;;4994528;28;20097;-69
2022/05/17 07:23:10;;;;;;;17.45;4.75;;;18.90;99.90;;;;;;4992984;28;20046;-68
2022/05/17 07:25:37;;;;;;;16.15;4.57;;;19.00;99.90;;;;;;4984797;28;20049;-70
2022/05/17 07:28:02;;;;;;;17.00;4.57;;;19.00;99.90;;;;;;4983881;28;20109;-69
2022/05/17 07:30:29;;;;;;;16.65;4.85;;;19.10;99.90;;;;;;4989967;28;20050;-70
2022/05/17 07:32:54;;;;;;;18.48;5.35;;;19.20;99.90;;;;;;4994804;28;20070;-69
2022/05/17 07:35:20;;;;;;;13.55;5.35;;;19.20;99.90;;;;;;4994614;28;20077;-69
2022/05/17 07:37:46;;;;;;;16.50;5.32;;;19.30;99.90;;;;;;4994765;28;20449;-70
2022/05/17 07:40:12;;;;;;;15.88;5.25;;;19.30;99.90;;;;;;4983408;28;20058;-70
2022/05/17 07:42:40;;;;;;;19.67;4.82;;;19.50;99.90;;;;;;4978398;28;20468;-69
2022/05/17 07:45:07;;;;;;;22.90;5.47;;;19.60;99.90;;;;;;4994487;28;20428;-71
2022/05/17 07:47:33;;;;;;;10.30;4.13;;;19.50;99.90;;;;;;4993469;28;20184;-70
2022/05/17 07:49:59;;;;;;;15.57;4.60;;;19.60;99.90;;;;;;5011667;28;20501;-69
2022/05/17 07:52:25;;;;;;;19.45;5.25;;;19.70;99.90;;;;;;4993731;28;20508;-69
2022/05/17 07:54:51;;;;;;;15.02;4.60;;;19.70;99.90;;;;;;4989851;28;20081;-69
2022/05/17 07:57:16;;;;;;;14.43;5.15;;;19.90;99.90;;;;;;4974035;28;20051;-70
2022/05/17 07:59:43;;;;;;;14.88;5.15;;;20.00;99.90;;;;;;4992724;28;20407;-68
2022/05/17 08:02:09;;;;;;;21.35;5.03;;;20.20;99.90;;;;;;4983218;28;20060;-69
2022/05/17 08:04:36;;;;;;;21.33;5.10;;;20.30;99.90;;;;;;5002246;28;20066;-69
2022/05/17 08:07:02;;;;;;;17.10;5.13;;;20.40;99.90;;;;;;4976385;28;20051;-69
2022/05/17 08:09:28;;;;;;;16.23;4.85;;;20.60;99.90;;;;;;4988197;28;20057;-70
2022/05/17 08:11:54;;;;;;;14.07;4.13;;;20.70;99.90;;;;;;4994336;28;20488;-69
2022/05/17 08:14:21;;;;;;;12.80;4.20;;;20.70;99.90;;;;;;4993922;28;20038;-70
2022/05/17 08:16:47;;;;;;;12.40;4.27;;;20.80;99.90;;;;;;4976894;28;20064;-69
2022/05/17 08:19:13;;;;;;;18.10;5.07;;;20.80;99.90;;;;;;5003609;28;20334;-69
2022/05/17 08:21:39;;;;;;;14.55;4.93;;;20.80;99.90;;;;;;5012788;28;20046;-69
2022/05/17 08:24:05;;;;;;;13.13;4.30;;;20.80;99.90;;;;;;4993398;28;20097;-70
2022/05/17 08:29:15;;;;;;;18.60;5.68;;;21.00;99.90;;;;;;4986636;28;20113;-68
2022/05/17 08:31:42;;;;;;;17.33;5.18;;;20.90;99.90;;;;;;4992072;28;20133;-70
2022/05/17 08:34:08;;;;;;;15.55;5.28;;;20.90;99.90;;;;;;5007478;28;20041;-70
2022/05/17 08:36:34;;;;;;;16.35;5.25;;;21.00;99.90;;;;;;5009644;28;20053;-70
2022/05/17 08:39:00;;;;;;;18.20;5.45;;;21.10;99.90;;;;;;4984048;28;20054;-70
2022/05/17 08:41:30;;;;;;;16.85;5.60;;;21.30;99.90;;;;;;4993993;28;20045;-70
2022/05/17 08:44:08;;;;;;;17.23;5.05;;;21.50;99.90;;;;;;4986923;28;20054;-70
2022/05/17 08:46:56;;;;;;;16.20;5.55;;;21.70;99.90;;;;;;4994937;28;20046;-69
2022/05/17 08:49:33;;;;;;;17.52;5.30;;;21.70;99.90;;;;;;4993101;28;20100;-68
2022/05/17 08:52:10;;;;;;;19.00;5.75;;;21.80;99.90;;;;;;4986526;28;20042;-68
2022/05/17 08:54:41;;;;;;;17.63;5.10;;;22.00;99.90;;;;;;4973671;28;20468;-70
2022/05/17 08:57:31;;;;;;;14.88;5.18;;;22.20;99.90;;;;;;4974968;28;20043;-68
2022/05/17 09:00:03;;;;;;;14.15;5.78;;;22.40;99.90;;;;;;4988366;28;20106;-69
2022/05/17 09:02:48;;;;;;;15.73;5.18;;;22.40;99.90;;;;;;4993719;28;20038;-69
2022/05/17 09:05:33;;;;;;;14.75;5.18;;;22.30;99.90;;;;;;4994627;28;20093;-69
2022/05/17 09:08:21;;;;;;;19.13;5.85;;;22.20;99.90;;;;;;4993617;28;20081;-68
2022/05/17 09:10:59;;;;;;;19.27;5.50;;;22.20;99.90;;;;;;4992385;28;20493;-70
2022/05/17 09:13:51;;;;;;;19.92;5.90;;;22.20;99.90;;;;;;4993737;28;20046;-69
2022/05/17 09:16:17;;;;;;;14.43;5.05;;;22.30;99.90;;;;;;4976849;28;20050;-69
2022/05/17 09:18:46;;;;;;;16.90;5.00;;;22.30;99.90;;;;;;5002815;28;20546;-68
2022/05/17 09:21:44;;;;;;;21.50;5.38;;;22.30;99.90;;;;;;5012549;28;20121;-69
2022/05/17 09:24:14;;;;;;;10.17;3.93;;;22.30;99.90;;;;;;5002452;28;20136;-69
2022/05/17 09:26:51;;;;;;;14.80;4.50;;;22.50;99.90;;;;;;4991956;28;20715;-71
2022/05/17 09:29:20;;;;;;;13.05;4.20;;;22.70;99.90;;;;;;4981244;28;20057;-69
2022/05/17 09:32:04;;;;;;;17.08;5.32;;;22.80;99.90;;;;;;4992565;28;20043;-69
2022/05/17 09:34:39;;;;;;;17.10;4.45;;;23.00;99.90;;;;;;4992447;28;20445;-69
2022/05/17 09:37:13;;;;;;;12.07;4.13;;;23.00;99.50;;;;;;4985241;28;20390;-68
2022/05/17 09:39:39;;;;;;;17.27;4.53;;;22.90;99.00;;;;;;4971681;28;20050;-69
2022/05/17 09:42:06;;;;;;;12.32;4.10;;;22.80;99.00;;;;;;4972974;28;20050;-69
2022/05/17 09:44:33;;;;;;;;;;;22.70;98.50;;;;;;4976599;28;20064;-68
2022/05/17 09:47:06;;;;;;;17.70;4.13;;;22.60;98.60;;;;;;4988752;28;19929;-68
2022/05/17 09:52:32;;;;;;;16.80;4.28;;;22.60;98.30;;;;;;4973035;28;20054;-69
2022/05/17 09:55:10;;;;;;;14.70;4.30;;;22.60;98.90;;;;;;4974061;28;20104;-68
2022/05/17 09:57:36;;;;;;;;;;;22.90;99.20;;;;;;4986671;28;20069;-69
2022/05/17 10:00:16;;;;;;;13.93;4.05;;;23.00;98.10;;;;;;4979541;28;20372;-69
2022/05/17 10:03:00;;;;;;;15.38;4.40;;;23.00;98.30;;;;;;4989485;28;20050;-69
2022/05/17 10:05:37;;;;;;;11.98;4.32;;;23.10;96.80;;;;;;4985487;28;20043;-69
2022/05/17 10:08:10;;;;;;;8.95;3.63;;;23.20;97.20;;;;;;4990929;28;20057;-70
2022/05/17 10:10:43;;;;;;;11.15;3.90;;;23.00;97.50;;;;;;4989991;28;20106;-71
2022/05/17 10:13:31;;;;;;;14.23;4.32;;;23.20;97.30;;;;;;4992400;28;20062;-69
2022/05/17 10:16:13;;;;;;;7.88;2.83;;;23.40;95.50;;;;;;4993223;28;20092;-70
2022/05/17 10:18:52;;;;;;;8.80;3.15;;;23.60;96.70;;;;;;4994612;28;20057;-70
2022/05/17 10:21:27;;;;;;;9.57;3.10;;;23.90;96.30;;;;;;4998063;28;20073;-70
2022/05/17 10:24:09;;;;;;;14.30;3.35;;;24.30;95.50;;;;;;5012369;28;20050;-69
2022/05/17 10:26:43;;;;;;;13.85;3.40;;;24.90;96.30;;;;;;5014044;28;20053;-70
2022/05/17 10:29:15;;;;;;;10.23;3.78;;;25.30;95.20;;;;;;5015661;28;20077;-70
2022/05/17 10:32:05;;;;;;;13.10;3.60;;;25.80;94.60;;;;;;4998907;28;20397;-70
2022/05/17 10:34:44;;;;;;;10.52;3.22;;;26.10;92.50;;;;;;5013778;28;20551;-70
2022/05/17 10:37:19;;;;;;;11.02;3.63;;;26.30;91.40;;;;;;4990424;28;20077;-70
2022/05/17 10:40:03;;;;;;;11.68;3.58;;;26.50;90.80;;;;;;4993158;28;20049;-68
2022/05/17 10:42:29;;;;;;;10.77;3.60;;;26.70;89.70;;;;;;5013838;28;20108;-70
2022/05/17 10:44:58;;;;;;;11.75;2.78;;;26.90;90.60;;;;;;5001342;28;20043;-69
2022/05/17 10:47:48;;;;;;;10.32;3.08;;;27.20;85.20;;;;;;4986803;28;20053;-71
2022/05/17 10:50:29;;;;;;;8.35;2.85;;;27.20;81.70;;;;;;5003625;28;20093;-70
2022/05/17 10:53:07;;;;;;;11.43;3.17;;;27.10;81.00;;;;;;5002382;28;20064;-70
2022/05/17 10:55:51;;;;;;;11.52;4.10;;;27.10;78.00;;;;;;4994227;28;20060;-69
2022/05/17 10:58:43;;;;;;;13.50;3.83;;;27.10;77.70;;;;;;5013513;28;20050;-69
2022/05/17 11:01:28;;;;;;;16.02;3.50;;;27.30;80.40;;;;;;4999245;28;20057;-69
2022/05/17 11:04:29;;;;;;;14.73;3.63;;;27.60;81.40;;;;;;5007877;28;20129;-69
2022/05/17 11:07:04;;;;;;;10.38;3.13;;;28.20;78.40;;;;;;5002140;28;20712;-70
2022/05/17 11:09:48;;;;;;;9.80;3.13;;;28.50;78.60;;;;;;4994386;28;20050;-69
2022/05/17 11:12:17;;;;;;;8.30;2.92;;;28.00;73.70;;;;;;4975238;28;20448;-69
2022/05/17 11:14:50;;;;;;;11.48;2.92;;;27.50;72.60;;;;;;4975527;28;20047;-69
2022/05/17 11:17:36;;;;;;;12.75;3.63;;;27.30;73.00;;;;;;4984805;28;20042;-68
2022/05/17 11:20:10;;;;;;;13.40;3.70;;;27.10;71.70;;;;;;4997051;28;20046;-68
2022/05/17 11:22:42;;;;;;;11.55;3.60;;;26.70;75.80;;;;;;4981254;28;20047;-69
2022/05/17 11:25:18;;;;;;;9.15;2.95;;;26.80;77.00;;;;;;5004745;28;20332;-69
2022/05/17 11:28:07;;;;;;;10.02;3.03;;;27.10;73.90;;;;;;5011948;28;20038;-69
2022/05/17 11:30:44;;;;;;;8.23;3.20;;;27.10;74.30;;;;;;4999285;28;20084;-69
2022/05/17 11:33:21;;;;;;;12.02;2.95;;;27.00;71.90;;;;;;4980683;28;20104;-70
2022/05/17 11:35:50;;;;;;;10.90;3.00;;;26.90;72.80;;;;;;4992928;28;20051;-69
2022/05/17 11:38:31;;;;;;;7.97;3.03;;;26.70;71.80;;;;;;4982271;28;20100;-69
2022/05/17 11:40:58;;;;;;;10.38;3.10;;;26.70;73.60;;;;;;4993862;28;20046;-70
2022/05/17 11:43:40;;;;;;;12.65;2.95;;;26.60;72.60;;;;;;4994252;28;20467;-70
2022/05/17 11:46:29;;;;;;;10.50;3.35;;;26.50;74.50;;;;;;4992508;28;20097;-69
2022/05/17 11:48:57;;;;;;;9.32;2.53;;;26.70;74.80;;;;;;4989252;28;20043;-69
2022/05/17 11:51:28;;;;;;;8.57;2.38;;;26.90;73.20;;;;;;4984333;28;20039;-68
2022/05/17 11:53:54;;;;;;;9.82;2.80;;;27.30;71.20;;;;;;4987054;28;20089;-69
2022/05/17 11:56:25;;;;;;;11.02;2.55;;;27.60;70.80;;;;;;4993945;28;20050;-69
2022/05/17 11:59:00;;;;;;;10.98;2.92;;;27.80;67.50;;;;;;4988326;28;20061;-69
2022/05/17 12:01:29;;;;;;;11.55;2.58;;;27.70;65.30;;;;;;4984141;28;20046;-69
2022/05/17 12:04:00;;;;;;;11.02;2.40;;;27.80;68.00;;;;;;5002345;28;20090;-68
2022/05/17 12:06:52;;;;;;;17.13;2.67;;;28.00;66.90;;;;;;4981104;28;20042;-70
2022/05/17 12:09:57;;;;;;;8.57;2.38;;;28.30;65.90;;;;;;4991826;28;20050;-69
2022/05/17 12:12:49;;;;;;;6.70;2.08;;;28.50;65.10;;;;;;4979051;28;20051;-69
2022/05/17 12:15:42;;;;;;;8.77;2.35;;;28.50;62.10;;;;;;4973381;28;20045;-69
2022/05/17 12:18:27;;;;;;;8.82;2.42;;;28.70;63.70;;;;;;4985183;28;20053;-70
2022/05/17 12:21:04;;;;;;;10.18;2.65;;;29.00;64.70;;;;;;4993503;28;20259;-69
2022/05/17 12:23:49;;;;;;;10.18;3.13;;;29.00;60.20;;;;;;4990729;28;20107;-69
2022/05/17 12:26:28;;;;;;;9.65;2.80;;;29.00;63.60;;;;;;4997707;28;20390;-69
2022/05/17 12:28:56;;;;;;;9.00;2.85;;;28.90;63.40;;;;;;4989105;28;20354;-70
2022/05/17 12:31:26;;;;;;;8.30;2.28;;;28.80;62.80;;;;;;4985885;28;20077;-68
2022/05/17 12:33:53;;;;;;;11.18;3.30;;;28.70;61.80;;;;;;4990631;28;20188;-68
2022/05/17 12:36:20;;;;;;;11.63;2.97;;;28.60;62.30;;;;;;4989776;28;20038;-67
2022/05/17 12:44:39;;;;;;;7.57;2.20;;;28.50;62.40;;;;;;5005186;28;20504;-69
2022/05/17 12:47:10;;;;;;;7.32;2.05;;;28.60;63.10;;;;;;4974642;28;20493;-68
2022/05/17 12:49:38;;;;;;;6.97;2.25;;;28.80;62.90;;;;;;5008608;28;20049;-70
2022/05/17 12:52:19;;;;;;;10.57;2.58;;;29.10;61.90;;;;;;5013014;28;20042;-68
2022/05/17 12:54:49;;;;;;;6.93;2.30;;;29.50;61.50;;;;;;5013231;28;20045;-69
2022/05/17 12:57:30;;;;;;;6.97;2.08;;;29.90;60.80;;;;;;4980031;28;20050;-70
2022/05/17 13:00:29;;;;;;;9.32;2.38;;;30.00;59.60;;;;;;4980365;28;20104;-69
2022/05/17 13:03:19;;;;;;;8.52;2.40;;;30.00;59.50;;;;;;4991267;28;20073;-71
2022/05/17 13:05:49;;;;;;;8.68;2.45;;;29.90;60.40;;;;;;4980026;28;20050;-69
2022/05/17 13:08:20;;;;;;;11.68;2.92;;;30.10;60.70;;;;;;4973718;28;20428;-69
2022/05/17 13:10:59;;;;;;;6.88;2.30;;;30.10;58.70;;;;;;4984806;28;20046;-68